Rockford, IL (61126)

5:09 PM CST on December 27, 2014 (GMT -0600)
Rockford Plaza | Change Station
CLOSE
Current Station
Personal Weather Station
Location: Rockford, IL
Elevation: 787 ft
Nearby Weather Stations

Elev 787 ft 42.27 °N, 89.06 °W | Updated 40 seconds ago

Overcast
Overcast
33.3 °F
Feels Like 33 °F
N
2.5
Wind Variable Wind from NW
Gusts 6.1 mph

Today
High -- | Low -- °F
--% Chance of Precip.
Yesterday
High -- | Low -- °F
Precip. -- in
7:24 AM 4:30 PM
Waxing Crescent, 41% visible
Pressure 30.12 in
Visibility 10.0 miles
Clouds Overcast 2500 ft
Windchill 33 °F
Dew Point 19 °F
Humidity 55%
Rainfall 0.02 in
Snow Depth Not available.
UV 0 out of 12
Pollen .10 out of 12
Air Quality Not available.
Flu Activity Not available.
METAR KRFD 272254Z 30011KT 10SM OVC025 01/M04 A3009 RMK AO2 SLP197 T00111039

More Conditions Fewer Conditions

Pressure 30.12 in
Visibility 10.0 miles
Clouds Overcast 2500 ft
Windchill 33 °F
Dew Point 19 °F
Humidity 55%
Rainfall 0.02 in
Snow Depth Not available.
UV 0 out of 12
Pollen .10 out of 12
Air Quality Not available.
Flu Activity Not available.
METAR KRFD 272254Z 30011KT 10SM OVC025 01/M04 A3009 RMK AO2 SLP197 T00111039

More Conditions Fewer Conditions

10-Day Weather Forecast

Almanac

Astronomy

Dec. 27, 2014 Rise Set
Actual Time
Civil Twilight
Nautical Twilight
Astronomical Twilight
Moon
Length of Visible Light
Length of Day
Tomorrow will be .
, % of the Moon is Illuminated

Today's Extremes

State Highs State Lows

Community

WunderPhotos

Upload Photos

1,781,100 photos uploaded!

WunderBlogs® & News

Nearby

Air Quality

  Air Quality AQ Index Pollutant
Not available.

Snow Depth

Station Depth Elevation

Earthquake Activity

City Distance Mag. Time & Date
Minimum magnitude displayed is 2.5.

Coastal Water Temperatures

Place Temperature

Nearby Weather Stations